sensor_id;sensor_type;location;lat;lon;timestamp;P1;durP1;ratioP1;P2;durP2;ratioP2
33160;SDS011;19522;45.656;11.302;2023-02-02T00:01:18;50.47;;;28.00;;
33160;SDS011;19522;45.656;11.302;2023-02-02T00:03:45;51.90;;;28.48;;
33160;SDS011;19522;45.656;11.302;2023-02-02T00:06:10;56.28;;;29.73;;
33160;SDS011;19522;45.656;11.302;2023-02-02T00:08:36;51.85;;;26.88;;
33160;SDS011;19522;45.656;11.302;2023-02-02T00:11:03;48.83;;;26.42;;
33160;SDS011;19522;45.656;11.302;2023-02-02T00:13:29;45.38;;;24.00;;
33160;SDS011;19522;45.656;11.302;2023-02-02T00:15:56;41.85;;;23.67;;
33160;SDS011;19522;45.656;11.302;2023-02-02T00:18:21;43.50;;;23.23;;
33160;SDS011;19522;45.656;11.302;2023-02-02T00:20:47;43.20;;;24.08;;
33160;SDS011;19522;45.656;11.302;2023-02-02T00:23:14;46.45;;;26.02;;
33160;SDS011;19522;45.656;11.302;2023-02-02T00:25:41;46.20;;;25.15;;
33160;SDS011;19522;45.656;11.302;2023-02-02T00:28:07;41.70;;;22.92;;
33160;SDS011;19522;45.656;11.302;2023-02-02T00:30:32;34.33;;;19.52;;
33160;SDS011;19522;45.656;11.302;2023-02-02T00:32:58;36.55;;;19.65;;
33160;SDS011;19522;45.656;11.302;2023-02-02T00:35:23;29.63;;;16.20;;
33160;SDS011;19522;45.656;11.302;2023-02-02T00:37:49;27.42;;;15.93;;
33160;SDS011;19522;45.656;11.302;2023-02-02T00:40:14;26.15;;;15.95;;
33160;SDS011;19522;45.656;11.302;2023-02-02T00:42:40;26.85;;;15.30;;
33160;SDS011;19522;45.656;11.302;2023-02-02T00:45:08;25.85;;;14.30;;
33160;SDS011;19522;45.656;11.302;2023-02-02T00:47:40;22.27;;;14.25;;
33160;SDS011;19522;45.656;11.302;2023-02-02T00:50:11;25.05;;;12.52;;
33160;SDS011;19522;45.656;11.302;2023-02-02T00:52:39;25.17;;;13.63;;
33160;SDS011;19522;45.656;11.302;2023-02-02T00:55:05;24.77;;;12.52;;
33160;SDS011;19522;45.656;11.302;2023-02-02T00:57:31;21.55;;;12.55;;
33160;SDS011;19522;45.656;11.302;2023-02-02T01:00:00;23.85;;;12.75;;
33160;SDS011;19522;45.656;11.302;2023-02-02T01:02:25;19.75;;;12.02;;
33160;SDS011;19522;45.656;11.302;2023-02-02T01:04:51;19.90;;;10.63;;
33160;SDS011;19522;45.656;11.302;2023-02-02T01:07:17;18.77;;;9.63;;
33160;SDS011;19522;45.656;11.302;2023-02-02T01:09:42;16.33;;;9.82;;
33160;SDS011;19522;45.656;11.302;2023-02-02T01:12:08;18.77;;;10.23;;
33160;SDS011;19522;45.656;11.302;2023-02-02T01:14:33;19.75;;;10.32;;
33160;SDS011;19522;45.656;11.302;2023-02-02T01:16:59;17.65;;;9.95;;
33160;SDS011;19522;45.656;11.302;2023-02-02T01:19:24;17.38;;;9.27;;
33160;SDS011;19522;45.656;11.302;2023-02-02T01:21:50;19.02;;;8.93;;
33160;SDS011;19522;45.656;11.302;2023-02-02T01:24:15;16.45;;;9.30;;
33160;SDS011;19522;45.656;11.302;2023-02-02T01:26:41;15.38;;;8.55;;
33160;SDS011;19522;45.656;11.302;2023-02-02T01:29:07;17.50;;;9.27;;
33160;SDS011;19522;45.656;11.302;2023-02-02T01:31:33;20.50;;;11.70;;
33160;SDS011;19522;45.656;11.302;2023-02-02T01:33:58;24.10;;;12.18;;
33160;SDS011;19522;45.656;11.302;2023-02-02T01:36:24;22.50;;;11.75;;
33160;SDS011;19522;45.656;11.302;2023-02-02T01:38:50;20.95;;;12.32;;
33160;SDS011;19522;45.656;11.302;2023-02-02T01:41:17;19.63;;;11.63;;
33160;SDS011;19522;45.656;11.302;2023-02-02T01:46:14;21.42;;;11.60;;
33160;SDS011;19522;45.656;11.302;2023-02-02T01:48:42;21.20;;;11.63;;
33160;SDS011;19522;45.656;11.302;2023-02-02T01:51:16;25.27;;;13.18;;
33160;SDS011;19522;45.656;11.302;2023-02-02T01:53:48;25.73;;;12.63;;
33160;SDS011;19522;45.656;11.302;2023-02-02T01:56:17;26.13;;;13.63;;
33160;SDS011;19522;45.656;11.302;2023-02-02T01:58:49;23.63;;;13.68;;
33160;SDS011;19522;45.656;11.302;2023-02-02T02:01:15;30.20;;;14.63;;
33160;SDS011;19522;45.656;11.302;2023-02-02T02:03:41;26.33;;;14.30;;
33160;SDS011;19522;45.656;11.302;2023-02-02T02:06:08;25.52;;;13.98;;
33160;SDS011;19522;45.656;11.302;2023-02-02T02:08:46;32.35;;;16.15;;
33160;SDS011;19522;45.656;11.302;2023-02-02T02:11:28;27.25;;;14.68;;
33160;SDS011;19522;45.656;11.302;2023-02-02T02:13:55;27.65;;;15.43;;
33160;SDS011;19522;45.656;11.302;2023-02-02T02:19:51;30.13;;;16.85;;
33160;SDS011;19522;45.656;11.302;2023-02-02T02:22:51;32.38;;;17.02;;
33160;SDS011;19522;45.656;11.302;2023-02-02T02:41:47;38.30;;;19.80;;
33160;SDS011;19522;45.656;11.302;2023-02-02T02:44:17;38.40;;;18.98;;
33160;SDS011;19522;45.656;11.302;2023-02-02T02:46:45;40.88;;;21.52;;
33160;SDS011;19522;45.656;11.302;2023-02-02T02:49:12;43.65;;;20.63;;
33160;SDS011;19522;45.656;11.302;2023-02-02T02:51:51;36.63;;;19.40;;
33160;SDS011;19522;45.656;11.302;2023-02-02T02:54:23;32.72;;;16.70;;
33160;SDS011;19522;45.656;11.302;2023-02-02T02:57:05;30.77;;;16.65;;
33160;SDS011;19522;45.656;11.302;2023-02-02T02:59:50;31.65;;;17.23;;
33160;SDS011;19522;45.656;11.302;2023-02-02T03:02:48;35.80;;;18.35;;
33160;SDS011;19522;45.656;11.302;2023-02-02T03:08:27;30.23;;;15.88;;
33160;SDS011;19522;45.656;11.302;2023-02-02T03:10:59;27.55;;;15.38;;
33160;SDS011;19522;45.656;11.302;2023-02-02T03:13:27;32.03;;;16.58;;
33160;SDS011;19522;45.656;11.302;2023-02-02T03:15:53;32.63;;;16.90;;
33160;SDS011;19522;45.656;11.302;2023-02-02T03:18:20;31.95;;;16.77;;
33160;SDS011;19522;45.656;11.302;2023-02-02T03:20:49;32.92;;;16.58;;
33160;SDS011;19522;45.656;11.302;2023-02-02T03:23:14;39.55;;;20.00;;
33160;SDS011;19522;45.656;11.302;2023-02-02T03:25:40;39.70;;;18.85;;
33160;SDS011;19522;45.656;11.302;2023-02-02T03:28:06;38.15;;;19.00;;
33160;SDS011;19522;45.656;11.302;2023-02-02T03:30:32;31.83;;;15.88;;
33160;SDS011;19522;45.656;11.302;2023-02-02T03:33:01;30.10;;;15.00;;
33160;SDS011;19522;45.656;11.302;2023-02-02T03:35:27;37.35;;;18.40;;
33160;SDS011;19522;45.656;11.302;2023-02-02T03:37:52;25.80;;;14.13;;
33160;SDS011;19522;45.656;11.302;2023-02-02T03:40:18;30.13;;;14.73;;
33160;SDS011;19522;45.656;11.302;2023-02-02T03:42:43;33.10;;;15.80;;
33160;SDS011;19522;45.656;11.302;2023-02-02T03:45:09;31.75;;;15.75;;
33160;SDS011;19522;45.656;11.302;2023-02-02T03:47:35;33.45;;;16.38;;
33160;SDS011;19522;45.656;11.302;2023-02-02T03:50:00;37.42;;;18.90;;
33160;SDS011;19522;45.656;11.302;2023-02-02T03:52:26;38.38;;;20.75;;
33160;SDS011;19522;45.656;11.302;2023-02-02T03:54:54;40.22;;;19.90;;
33160;SDS011;19522;45.656;11.302;2023-02-02T03:57:20;35.30;;;19.80;;
33160;SDS011;19522;45.656;11.302;2023-02-02T03:59:45;33.53;;;16.88;;
33160;SDS011;19522;45.656;11.302;2023-02-02T04:02:14;33.00;;;16.33;;
33160;SDS011;19522;45.656;11.302;2023-02-02T04:04:39;32.10;;;17.27;;
33160;SDS011;19522;45.656;11.302;2023-02-02T04:07:05;34.70;;;18.23;;
33160;SDS011;19522;45.656;11.302;2023-02-02T04:09:30;29.60;;;16.17;;
33160;SDS011;19522;45.656;11.302;2023-02-02T04:11:56;29.50;;;16.42;;
33160;SDS011;19522;45.656;11.302;2023-02-02T04:14:21;31.65;;;15.82;;
33160;SDS011;19522;45.656;11.302;2023-02-02T04:16:47;27.67;;;14.07;;
33160;SDS011;19522;45.656;11.302;2023-02-02T04:19:14;25.45;;;13.07;;
33160;SDS011;19522;45.656;11.302;2023-02-02T04:21:39;22.27;;;11.73;;
33160;SDS011;19522;45.656;11.302;2023-02-02T04:24:06;20.80;;;10.68;;
33160;SDS011;19522;45.656;11.302;2023-02-02T04:26:34;19.63;;;9.77;;
33160;SDS011;19522;45.656;11.302;2023-02-02T04:29:00;18.00;;;9.23;;
33160;SDS011;19522;45.656;11.302;2023-02-02T04:31:25;18.27;;;9.18;;
33160;SDS011;19522;45.656;11.302;2023-02-02T04:33:54;20.83;;;11.68;;
33160;SDS011;19522;45.656;11.302;2023-02-02T04:36:22;25.13;;;13.25;;
33160;SDS011;19522;45.656;11.302;2023-02-02T04:38:48;24.70;;;13.55;;
33160;SDS011;19522;45.656;11.302;2023-02-02T04:41:15;22.70;;;12.30;;
33160;SDS011;19522;45.656;11.302;2023-02-02T04:43:42;20.17;;;10.60;;
33160;SDS011;19522;45.656;11.302;2023-02-02T04:46:08;16.23;;;9.48;;
33160;SDS011;19522;45.656;11.302;2023-02-02T04:48:34;17.77;;;9.10;;
33160;SDS011;19522;45.656;11.302;2023-02-02T04:51:00;18.83;;;9.32;;
33160;SDS011;19522;45.656;11.302;2023-02-02T04:53:30;17.05;;;9.25;;
33160;SDS011;19522;45.656;11.302;2023-02-02T04:55:56;17.20;;;8.60;;
33160;SDS011;19522;45.656;11.302;2023-02-02T04:58:22;16.25;;;8.68;;
33160;SDS011;19522;45.656;11.302;2023-02-02T05:00:48;16.35;;;9.07;;
33160;SDS011;19522;45.656;11.302;2023-02-02T05:03:14;16.40;;;9.35;;
33160;SDS011;19522;45.656;11.302;2023-02-02T05:05:39;17.00;;;10.45;;
33160;SDS011;19522;45.656;11.302;2023-02-02T05:08:05;18.42;;;9.52;;
33160;SDS011;19522;45.656;11.302;2023-02-02T05:10:32;15.30;;;7.97;;
33160;SDS011;19522;45.656;11.302;2023-02-02T05:12:58;16.02;;;9.43;;
33160;SDS011;19522;45.656;11.302;2023-02-02T05:15:24;16.25;;;8.73;;
33160;SDS011;19522;45.656;11.302;2023-02-02T05:17:50;15.25;;;8.45;;
33160;SDS011;19522;45.656;11.302;2023-02-02T05:20:15;11.98;;;7.05;;
33160;SDS011;19522;45.656;11.302;2023-02-02T05:22:47;11.77;;;7.25;;
33160;SDS011;19522;45.656;11.302;2023-02-02T05:25:13;10.18;;;5.25;;
33160;SDS011;19522;45.656;11.302;2023-02-02T05:27:42;11.60;;;5.05;;
33160;SDS011;19522;45.656;11.302;2023-02-02T05:30:12;11.50;;;6.28;;
33160;SDS011;19522;45.656;11.302;2023-02-02T05:32:38;11.93;;;7.40;;
33160;SDS011;19522;45.656;11.302;2023-02-02T05:35:04;13.00;;;6.78;;
33160;SDS011;19522;45.656;11.302;2023-02-02T05:37:30;11.63;;;7.28;;
33160;SDS011;19522;45.656;11.302;2023-02-02T05:39:55;14.35;;;6.90;;
33160;SDS011;19522;45.656;11.302;2023-02-02T05:42:21;11.00;;;6.45;;
33160;SDS011;19522;45.656;11.302;2023-02-02T05:44:46;10.15;;;5.47;;
33160;SDS011;19522;45.656;11.302;2023-02-02T05:47:12;10.38;;;6.97;;
33160;SDS011;19522;45.656;11.302;2023-02-02T05:49:38;10.15;;;5.93;;
33160;SDS011;19522;45.656;11.302;2023-02-02T05:52:03;8.43;;;5.35;;
33160;SDS011;19522;45.656;11.302;2023-02-02T05:54:29;11.25;;;6.50;;
33160;SDS011;19522;45.656;11.302;2023-02-02T05:56:54;6.97;;;4.85;;
33160;SDS011;19522;45.656;11.302;2023-02-02T05:59:21;6.78;;;4.65;;
33160;SDS011;19522;45.656;11.302;2023-02-02T06:01:48;6.63;;;4.80;;
33160;SDS011;19522;45.656;11.302;2023-02-02T06:04:13;8.20;;;4.85;;
33160;SDS011;19522;45.656;11.302;2023-02-02T06:06:39;7.40;;;5.65;;
33160;SDS011;19522;45.656;11.302;2023-02-02T06:09:06;12.00;;;8.45;;
33160;SDS011;19522;45.656;11.302;2023-02-02T06:11:32;14.63;;;9.38;;
33160;SDS011;19522;45.656;11.302;2023-02-02T06:13:58;12.15;;;8.55;;
33160;SDS011;19522;45.656;11.302;2023-02-02T06:16:24;18.45;;;11.00;;
33160;SDS011;19522;45.656;11.302;2023-02-02T06:18:50;18.27;;;11.50;;
33160;SDS011;19522;45.656;11.302;2023-02-02T06:21:16;27.95;;;16.23;;
33160;SDS011;19522;45.656;11.302;2023-02-02T06:23:42;25.48;;;14.80;;
33160;SDS011;19522;45.656;11.302;2023-02-02T06:26:13;15.85;;;10.20;;
33160;SDS011;19522;45.656;11.302;2023-02-02T06:28:39;16.92;;;10.07;;
33160;SDS011;19522;45.656;11.302;2023-02-02T06:31:05;11.88;;;7.78;;
33160;SDS011;19522;45.656;11.302;2023-02-02T06:33:32;13.45;;;8.32;;
33160;SDS011;19522;45.656;11.302;2023-02-02T06:35:59;11.93;;;6.90;;
33160;SDS011;19522;45.656;11.302;2023-02-02T06:38:28;8.90;;;6.28;;
33160;SDS011;19522;45.656;11.302;2023-02-02T06:40:54;8.05;;;5.70;;
33160;SDS011;19522;45.656;11.302;2023-02-02T06:43:20;9.73;;;6.38;;
33160;SDS011;19522;45.656;11.302;2023-02-02T06:45:48;13.52;;;6.45;;
33160;SDS011;19522;45.656;11.302;2023-02-02T06:48:13;8.43;;;6.20;;
33160;SDS011;19522;45.656;11.302;2023-02-02T06:50:39;9.88;;;7.10;;
33160;SDS011;19522;45.656;11.302;2023-02-02T06:53:04;12.55;;;7.22;;
33160;SDS011;19522;45.656;11.302;2023-02-02T06:55:30;12.90;;;8.23;;
33160;SDS011;19522;45.656;11.302;2023-02-02T06:57:56;11.75;;;7.28;;
33160;SDS011;19522;45.656;11.302;2023-02-02T07:00:26;11.60;;;6.78;;
33160;SDS011;19522;45.656;11.302;2023-02-02T07:02:54;17.30;;;10.65;;
33160;SDS011;19522;45.656;11.302;2023-02-02T07:05:19;20.40;;;14.73;;
33160;SDS011;19522;45.656;11.302;2023-02-02T07:07:47;23.35;;;15.38;;
33160;SDS011;19522;45.656;11.302;2023-02-02T07:10:14;24.20;;;15.98;;
33160;SDS011;19522;45.656;11.302;2023-02-02T07:12:40;15.40;;;10.07;;
33160;SDS011;19522;45.656;11.302;2023-02-02T07:15:05;16.10;;;10.80;;
33160;SDS011;19522;45.656;11.302;2023-02-02T07:17:31;17.45;;;12.13;;
33160;SDS011;19522;45.656;11.302;2023-02-02T07:19:57;15.48;;;9.15;;
33160;SDS011;19522;45.656;11.302;2023-02-02T07:22:22;13.15;;;7.65;;
33160;SDS011;19522;45.656;11.302;2023-02-02T07:24:48;9.15;;;6.25;;
33160;SDS011;19522;45.656;11.302;2023-02-02T07:27:16;13.80;;;8.68;;
33160;SDS011;19522;45.656;11.302;2023-02-02T07:29:42;12.10;;;7.22;;
33160;SDS011;19522;45.656;11.302;2023-02-02T07:32:07;12.52;;;8.10;;
33160;SDS011;19522;45.656;11.302;2023-02-02T07:34:35;27.20;;;15.02;;
33160;SDS011;19522;45.656;11.302;2023-02-02T07:37:02;28.90;;;15.05;;
33160;SDS011;19522;45.656;11.302;2023-02-02T07:39:28;30.40;;;16.77;;
33160;SDS011;19522;45.656;11.302;2023-02-02T07:41:53;15.05;;;10.38;;
33160;SDS011;19522;45.656;11.302;2023-02-02T07:44:19;11.40;;;7.88;;
33160;SDS011;19522;45.656;11.302;2023-02-02T07:46:45;11.63;;;7.65;;
33160;SDS011;19522;45.656;11.302;2023-02-02T07:49:15;48.25;;;22.60;;
33160;SDS011;19522;45.656;11.302;2023-02-02T07:51:42;9.82;;;6.15;;
33160;SDS011;19522;45.656;11.302;2023-02-02T07:54:07;7.85;;;5.55;;
33160;SDS011;19522;45.656;11.302;2023-02-02T07:56:34;12.38;;;7.40;;
33160;SDS011;19522;45.656;11.302;2023-02-02T07:58:59;14.98;;;10.30;;
33160;SDS011;19522;45.656;11.302;2023-02-02T08:01:26;15.00;;;10.82;;
33160;SDS011;19522;45.656;11.302;2023-02-02T08:03:53;13.68;;;9.00;;
33160;SDS011;19522;45.656;11.302;2023-02-02T08:06:20;12.13;;;8.60;;
33160;SDS011;19522;45.656;11.302;2023-02-02T08:08:48;13.43;;;8.40;;
33160;SDS011;19522;45.656;11.302;2023-02-02T08:11:15;13.48;;;7.72;;
33160;SDS011;19522;45.656;11.302;2023-02-02T08:13:43;14.25;;;9.02;;
33160;SDS011;19522;45.656;11.302;2023-02-02T08:16:09;18.30;;;7.88;;
33160;SDS011;19522;45.656;11.302;2023-02-02T08:18:36;15.48;;;7.68;;
33160;SDS011;19522;45.656;11.302;2023-02-02T08:21:02;16.05;;;8.35;;
33160;SDS011;19522;45.656;11.302;2023-02-02T08:23:35;14.07;;;7.32;;
33160;SDS011;19522;45.656;11.302;2023-02-02T08:26:05;25.40;;;13.55;;
33160;SDS011;19522;45.656;11.302;2023-02-02T08:28:39;20.77;;;11.40;;
33160;SDS011;19522;45.656;11.302;2023-02-02T08:31:24;18.88;;;10.32;;
33160;SDS011;19522;45.656;11.302;2023-02-02T08:33:57;14.98;;;9.88;;
33160;SDS011;19522;45.656;11.302;2023-02-02T08:36:24;16.63;;;9.75;;
33160;SDS011;19522;45.656;11.302;2023-02-02T08:38:51;20.48;;;10.45;;
33160;SDS011;19522;45.656;11.302;2023-02-02T08:41:18;14.00;;;8.80;;
33160;SDS011;19522;45.656;11.302;2023-02-02T08:43:45;12.25;;;7.88;;
33160;SDS011;19522;45.656;11.302;2023-02-02T08:46:12;13.27;;;7.80;;
33160;SDS011;19522;45.656;11.302;2023-02-02T08:48:38;13.63;;;8.27;;
33160;SDS011;19522;45.656;11.302;2023-02-02T08:51:04;12.63;;;9.88;;
33160;SDS011;19522;45.656;11.302;2023-02-02T08:53:31;14.65;;;9.77;;
33160;SDS011;19522;45.656;11.302;2023-02-02T08:56:01;12.55;;;9.30;;
33160;SDS011;19522;45.656;11.302;2023-02-02T08:58:29;10.07;;;7.20;;
33160;SDS011;19522;45.656;11.302;2023-02-02T09:01:02;25.95;;;8.02;;
33160;SDS011;19522;45.656;11.302;2023-02-02T09:03:31;17.50;;;7.25;;
33160;SDS011;19522;45.656;11.302;2023-02-02T09:05:57;13.80;;;9.20;;
33160;SDS011;19522;45.656;11.302;2023-02-02T09:08:22;14.15;;;9.48;;
33160;SDS011;19522;45.656;11.302;2023-02-02T09:10:48;19.02;;;11.10;;
33160;SDS011;19522;45.656;11.302;2023-02-02T09:13:13;20.75;;;16.00;;
33160;SDS011;19522;45.656;11.302;2023-02-02T09:15:38;17.90;;;11.88;;
33160;SDS011;19522;45.656;11.302;2023-02-02T09:18:04;14.63;;;9.70;;
33160;SDS011;19522;45.656;11.302;2023-02-02T09:20:29;15.95;;;11.13;;
33160;SDS011;19522;45.656;11.302;2023-02-02T09:22:55;10.32;;;6.82;;
33160;SDS011;19522;45.656;11.302;2023-02-02T09:25:21;11.07;;;6.95;;
33160;SDS011;19522;45.656;11.302;2023-02-02T09:27:48;8.43;;;5.40;;
33160;SDS011;19522;45.656;11.302;2023-02-02T09:30:14;16.63;;;11.70;;
33160;SDS011;19522;45.656;11.302;2023-02-02T09:32:40;10.00;;;6.72;;
33160;SDS011;19522;45.656;11.302;2023-02-02T09:35:05;8.32;;;3.67;;
33160;SDS011;19522;45.656;11.302;2023-02-02T09:37:32;6.88;;;3.63;;
33160;SDS011;19522;45.656;11.302;2023-02-02T09:39:58;13.32;;;7.22;;
33160;SDS011;19522;45.656;11.302;2023-02-02T09:44:57;11.05;;;6.38;;
33160;SDS011;19522;45.656;11.302;2023-02-02T09:50:17;14.20;;;6.28;;
33160;SDS011;19522;45.656;11.302;2023-02-02T09:53:12;14.13;;;8.45;;
33160;SDS011;19522;45.656;11.302;2023-02-02T09:55:48;15.65;;;9.30;;
33160;SDS011;19522;45.656;11.302;2023-02-02T10:01:05;12.30;;;7.00;;
33160;SDS011;19522;45.656;11.302;2023-02-02T10:04:20;14.50;;;7.63;;
33160;SDS011;19522;45.656;11.302;2023-02-02T10:14:46;16.17;;;8.60;;
33160;SDS011;19522;45.656;11.302;2023-02-02T10:20:02;14.63;;;8.95;;
33160;SDS011;19522;45.656;11.302;2023-02-02T10:22:41;19.02;;;11.93;;
33160;SDS011;19522;45.656;11.302;2023-02-02T10:25:10;21.25;;;11.98;;
33160;SDS011;19522;45.656;11.302;2023-02-02T10:27:39;23.30;;;14.20;;
33160;SDS011;19522;45.656;11.302;2023-02-02T10:30:15;33.63;;;19.50;;
33160;SDS011;19522;45.656;11.302;2023-02-02T10:32:47;34.05;;;20.42;;
33160;SDS011;19522;45.656;11.302;2023-02-02T10:38:21;41.35;;;23.92;;
33160;SDS011;19522;45.656;11.302;2023-02-02T10:41:10;47.38;;;25.88;;
33160;SDS011;19522;45.656;11.302;2023-02-02T10:46:27;44.70;;;27.58;;
33160;SDS011;19522;45.656;11.302;2023-02-02T10:49:37;47.28;;;29.58;;
33160;SDS011;19522;45.656;11.302;2023-02-02T10:54:43;64.10;;;34.42;;
33160;SDS011;19522;45.656;11.302;2023-02-02T10:57:12;61.63;;;35.40;;
33160;SDS011;19522;45.656;11.302;2023-02-02T10:59:45;61.33;;;37.63;;
33160;SDS011;19522;45.656;11.302;2023-02-02T11:02:35;63.20;;;37.78;;
33160;SDS011;19522;45.656;11.302;2023-02-02T11:05:00;65.20;;;37.78;;
33160;SDS011;19522;45.656;11.302;2023-02-02T11:07:44;61.47;;;38.67;;
33160;SDS011;19522;45.656;11.302;2023-02-02T11:10:10;63.63;;;36.72;;
33160;SDS011;19522;45.656;11.302;2023-02-02T11:12:40;65.70;;;38.00;;
33160;SDS011;19522;45.656;11.302;2023-02-02T11:15:23;61.60;;;38.80;;
33160;SDS011;19522;45.656;11.302;2023-02-02T11:17:49;63.08;;;36.45;;
33160;SDS011;19522;45.656;11.302;2023-02-02T11:20:48;59.97;;;35.33;;
33160;SDS011;19522;45.656;11.302;2023-02-02T11:23:08;59.97;;;36.42;;
33160;SDS011;19522;45.656;11.302;2023-02-02T11:25:42;61.75;;;35.58;;
33160;SDS011;19522;45.656;11.302;2023-02-02T11:28:09;58.05;;;36.72;;
33160;SDS011;19522;45.656;11.302;2023-02-02T11:30:47;55.67;;;32.78;;
33160;SDS011;19522;45.656;11.302;2023-02-02T11:33:32;65.13;;;36.80;;
33160;SDS011;19522;45.656;11.302;2023-02-02T11:36:03;58.42;;;36.85;;
33160;SDS011;19522;45.656;11.302;2023-02-02T11:38:30;57.88;;;36.83;;
33160;SDS011;19522;45.656;11.302;2023-02-02T11:41:05;58.55;;;33.63;;
33160;SDS011;19522;45.656;11.302;2023-02-02T11:43:36;59.42;;;35.80;;
33160;SDS011;19522;45.656;11.302;2023-02-02T11:46:21;65.13;;;38.15;;
33160;SDS011;19522;45.656;11.302;2023-02-02T11:51:21;71.85;;;41.83;;
33160;SDS011;19522;45.656;11.302;2023-02-02T11:53:49;67.53;;;41.95;;
33160;SDS011;19522;45.656;11.302;2023-02-02T11:56:26;68.50;;;40.50;;
33160;SDS011;19522;45.656;11.302;2023-02-02T11:58:55;71.00;;;42.30;;
33160;SDS011;19522;45.656;11.302;2023-02-02T12:01:27;72.15;;;43.30;;
33160;SDS011;19522;45.656;11.302;2023-02-02T12:03:53;72.13;;;44.53;;
33160;SDS011;19522;45.656;11.302;2023-02-02T12:06:22;78.82;;;45.90;;
33160;SDS011;19522;45.656;11.302;2023-02-02T12:08:49;77.63;;;46.17;;
33160;SDS011;19522;45.656;11.302;2023-02-02T12:28:25;89.13;;;57.15;;
33160;SDS011;19522;45.656;11.302;2023-02-02T12:31:20;91.20;;;55.75;;
33160;SDS011;19522;45.656;11.302;2023-02-02T12:52:47;77.80;;;51.85;;
33160;SDS011;19522;45.656;11.302;2023-02-02T13:00:43;85.43;;;55.30;;
33160;SDS011;19522;45.656;11.302;2023-02-02T13:03:35;81.15;;;53.83;;
33160;SDS011;19522;45.656;11.302;2023-02-02T13:09:19;80.25;;;51.88;;
33160;SDS011;19522;45.656;11.302;2023-02-02T13:11:51;87.15;;;55.13;;
33160;SDS011;19522;45.656;11.302;2023-02-02T13:16:58;89.68;;;58.20;;
33160;SDS011;19522;45.656;11.302;2023-02-02T13:20:03;86.70;;;55.33;;
33160;SDS011;19522;45.656;11.302;2023-02-02T13:24:54;88.47;;;55.33;;
33160;SDS011;19522;45.656;11.302;2023-02-02T13:27:23;84.75;;;56.80;;
33160;SDS011;19522;45.656;11.302;2023-02-02T13:29:50;89.78;;;56.75;;
33160;SDS011;19522;45.656;11.302;2023-02-02T13:32:33;83.93;;;55.53;;
33160;SDS011;19522;45.656;11.302;2023-02-02T13:35:22;92.75;;;56.97;;
33160;SDS011;19522;45.656;11.302;2023-02-02T13:40:46;92.57;;;57.20;;
33160;SDS011;19522;45.656;11.302;2023-02-02T13:48:50;101.53;;;62.38;;
33160;SDS011;19522;45.656;11.302;2023-02-02T14:02:15;93.75;;;61.35;;
33160;SDS011;19522;45.656;11.302;2023-02-02T14:04:59;97.18;;;61.92;;
33160;SDS011;19522;45.656;11.302;2023-02-02T14:07:27;96.07;;;62.35;;
33160;SDS011;19522;45.656;11.302;2023-02-02T14:10:00;102.88;;;63.83;;
33160;SDS011;19522;45.656;11.302;2023-02-02T14:12:29;97.57;;;62.95;;
33160;SDS011;19522;45.656;11.302;2023-02-02T14:14:57;99.13;;;63.90;;
33160;SDS011;19522;45.656;11.302;2023-02-02T14:19:58;92.57;;;61.15;;
33160;SDS011;19522;45.656;11.302;2023-02-02T14:28:12;103.97;;;62.28;;
33160;SDS011;19522;45.656;11.302;2023-02-02T14:33:41;100.40;;;63.85;;
33160;SDS011;19522;45.656;11.302;2023-02-02T14:36:12;101.85;;;66.32;;
33160;SDS011;19522;45.656;11.302;2023-02-02T14:41:52;105.22;;;64.38;;
33160;SDS011;19522;45.656;11.302;2023-02-02T14:45:03;102.53;;;63.30;;
33160;SDS011;19522;45.656;11.302;2023-02-02T14:50:16;99.50;;;63.05;;
33160;SDS011;19522;45.656;11.302;2023-02-02T14:52:56;102.05;;;64.07;;
33160;SDS011;19522;45.656;11.302;2023-02-02T14:55:25;97.15;;;64.60;;
33160;SDS011;19522;45.656;11.302;2023-02-02T14:57:55;100.68;;;63.35;;
33160;SDS011;19522;45.656;11.302;2023-02-02T15:00:28;96.00;;;63.22;;
33160;SDS011;19522;45.656;11.302;2023-02-02T15:03:19;97.82;;;63.13;;
33160;SDS011;19522;45.656;11.302;2023-02-02T15:06:04;99.40;;;65.18;;
33160;SDS011;19522;45.656;11.302;2023-02-02T15:08:38;109.43;;;64.88;;
33160;SDS011;19522;45.656;11.302;2023-02-02T15:11:04;96.68;;;63.00;;
33160;SDS011;19522;45.656;11.302;2023-02-02T15:13:53;98.10;;;62.40;;
33160;SDS011;19522;45.656;11.302;2023-02-02T15:16:28;103.25;;;64.78;;
33160;SDS011;19522;45.656;11.302;2023-02-02T15:19:12;106.30;;;63.00;;
33160;SDS011;19522;45.656;11.302;2023-02-02T15:21:46;103.90;;;66.18;;
33160;SDS011;19522;45.656;11.302;2023-02-02T15:24:17;96.50;;;62.60;;
33160;SDS011;19522;45.656;11.302;2023-02-02T15:26:45;99.28;;;61.75;;
33160;SDS011;19522;45.656;11.302;2023-02-02T15:29:13;98.57;;;61.85;;
33160;SDS011;19522;45.656;11.302;2023-02-02T15:31:50;102.93;;;64.35;;
33160;SDS011;19522;45.656;11.302;2023-02-02T15:37:11;104.15;;;64.50;;
33160;SDS011;19522;45.656;11.302;2023-02-02T15:39:40;103.32;;;64.55;;
33160;SDS011;19522;45.656;11.302;2023-02-02T15:42:17;83.43;;;52.72;;
33160;SDS011;19522;45.656;11.302;2023-02-02T15:45:05;74.57;;;46.30;;
33160;SDS011;19522;45.656;11.302;2023-02-02T15:47:35;76.18;;;50.80;;
33160;SDS011;19522;45.656;11.302;2023-02-02T15:50:03;65.97;;;43.67;;
33160;SDS011;19522;45.656;11.302;2023-02-02T15:52:46;66.53;;;42.58;;
33160;SDS011;19522;45.656;11.302;2023-02-02T15:55:19;57.38;;;38.10;;
33160;SDS011;19522;45.656;11.302;2023-02-02T15:57:46;53.38;;;35.38;;
33160;SDS011;19522;45.656;11.302;2023-02-02T16:00:28;55.40;;;35.00;;
33160;SDS011;19522;45.656;11.302;2023-02-02T16:05:24;62.38;;;43.78;;
33160;SDS011;19522;45.656;11.302;2023-02-02T16:07:56;51.00;;;34.38;;
33160;SDS011;19522;45.656;11.302;2023-02-02T16:10:23;55.08;;;33.45;;
33160;SDS011;19522;45.656;11.302;2023-02-02T16:12:49;50.42;;;32.08;;
33160;SDS011;19522;45.656;11.302;2023-02-02T16:15:22;49.80;;;31.27;;
33160;SDS011;19522;45.656;11.302;2023-02-02T16:18:03;41.92;;;28.50;;
33160;SDS011;19522;45.656;11.302;2023-02-02T16:20:35;43.72;;;28.63;;
33160;SDS011;19522;45.656;11.302;2023-02-02T16:23:02;48.28;;;29.05;;
33160;SDS011;19522;45.656;11.302;2023-02-02T16:25:36;44.97;;;29.00;;
33160;SDS011;19522;45.656;11.302;2023-02-02T16:28:12;49.33;;;30.50;;
33160;SDS011;19522;45.656;11.302;2023-02-02T16:30:40;53.83;;;31.98;;
33160;SDS011;19522;45.656;11.302;2023-02-02T16:35:51;51.55;;;34.40;;
33160;SDS011;19522;45.656;11.302;2023-02-02T16:38:25;51.55;;;34.80;;
33160;SDS011;19522;45.656;11.302;2023-02-02T16:43:31;59.30;;;36.22;;
33160;SDS011;19522;45.656;11.302;2023-02-02T16:45:58;56.40;;;36.25;;
33160;SDS011;19522;45.656;11.302;2023-02-02T16:53:52;75.00;;;48.20;;
33160;SDS011;19522;45.656;11.302;2023-02-02T16:56:32;76.82;;;50.83;;
33160;SDS011;19522;45.656;11.302;2023-02-02T16:59:05;72.38;;;46.40;;
33160;SDS011;19522;45.656;11.302;2023-02-02T17:01:41;58.47;;;36.83;;
33160;SDS011;19522;45.656;11.302;2023-02-02T17:04:16;56.63;;;35.33;;
33160;SDS011;19522;45.656;11.302;2023-02-02T17:06:49;56.92;;;34.45;;